Time;durP1;ratioP1;P1;durP2;ratioP2;P2;SDS_P1;SDS_P2;PMS_P1;PMS_P2;Temp;Humidity;BMP_temperature;BMP_pressure;BME280_temperature;BME280_humidity;BME280_pressure;Samples;Min_cycle;Max_cycle;Signal;HPM_P1;HPM_P2
2023/12/06 00:01:43;;;;;;;0.55;0.30;;;3.40;99.90;;;;;;4906110;29;20115;-65
2023/12/06 00:04:09;;;;;;;0.40;0.40;;;3.40;99.90;;;;;;4916351;29;20020;-65
2023/12/06 00:06:35;;;;;;;0.70;0.50;;;3.40;99.90;;;;;;4916026;29;20036;-65
2023/12/06 00:09:00;;;;;;;0.30;0.30;;;3.40;99.90;;;;;;4916187;29;20161;-65
2023/12/06 00:11:26;;;;;;;0.52;0.50;;;3.40;99.90;;;;;;4916527;29;20060;-65
2023/12/06 00:13:51;;;;;;;1.77;0.60;;;3.40;99.90;;;;;;4916844;29;20028;-65
2023/12/06 00:16:17;;;;;;;0.50;0.40;;;3.40;99.90;;;;;;4918250;29;20055;-66
2023/12/06 00:18:43;;;;;;;0.55;0.30;;;3.40;99.90;;;;;;4912744;29;20036;-65
2023/12/06 00:21:09;;;;;;;0.32;0.32;;;3.40;99.90;;;;;;4916383;29;20063;-65
2023/12/06 00:23:35;;;;;;;0.77;0.43;;;3.50;99.90;;;;;;4916292;29;20063;-65
2023/12/06 00:26:01;;;;;;;1.38;0.40;;;3.50;99.90;;;;;;4915541;29;20028;-65
2023/12/06 00:28:26;;;;;;;0.30;0.30;;;3.60;99.90;;;;;;4916674;29;20032;-65
2023/12/06 00:30:52;;;;;;;1.65;0.38;;;3.60;99.90;;;;;;4915563;29;20036;-65
2023/12/06 00:33:17;;;;;;;0.35;0.10;;;3.60;99.90;;;;;;4916537;29;20030;-65
2023/12/06 00:35:43;;;;;;;1.13;0.63;;;3.70;99.90;;;;;;4915787;29;20032;-64
2023/12/06 00:38:09;;;;;;;0.35;0.35;;;3.70;99.90;;;;;;4915484;29;20048;-64
2023/12/06 00:40:35;;;;;;;0.50;0.30;;;3.70;99.90;;;;;;4915512;29;20028;-65
2023/12/06 00:43:03;;;;;;;0.90;0.38;;;3.70;99.90;;;;;;4913486;29;20042;-64
2023/12/06 00:45:29;;;;;;;2.35;0.30;;;3.70;99.90;;;;;;4915660;29;20028;-65
2023/12/06 00:47:55;;;;;;;0.55;0.30;;;3.70;99.90;;;;;;4914117;29;20087;-65
2023/12/06 00:50:21;;;;;;;0.40;0.22;;;3.70;99.90;;;;;;4915530;29;20357;-65
2023/12/06 00:52:46;;;;;;;1.67;0.30;;;3.80;99.90;;;;;;4913784;29;20075;-65
2023/12/06 00:55:12;;;;;;;0.45;0.20;;;3.70;99.90;;;;;;4915282;29;20032;-64
2023/12/06 00:57:38;;;;;;;0.35;0.10;;;3.70;99.90;;;;;;4914261;29;20028;-65
2023/12/06 01:00:04;;;;;;;0.20;0.20;;;3.70;99.90;;;;;;4914989;29;20025;-65
2023/12/06 01:02:29;;;;;;;0.30;0.30;;;3.70;99.90;;;;;;4914659;29;20036;-66
2023/12/06 01:04:55;;;;;;;1.10;0.30;;;3.70;99.90;;;;;;4914308;29;20024;-66
2023/12/06 01:07:20;;;;;;;1.60;0.30;;;3.70;99.90;;;;;;4914720;29;20028;-66
2023/12/06 01:09:46;;;;;;;0.20;0.10;;;3.70;99.90;;;;;;4914382;29;20111;-65
2023/12/06 01:12:12;;;;;;;0.43;0.10;;;3.80;99.90;;;;;;4913892;29;20036;-66
2023/12/06 01:14:37;;;;;;;0.13;0.10;;;3.80;99.90;;;;;;4915238;29;20160;-66
2023/12/06 01:17:03;;;;;;;0.30;0.20;;;3.80;99.90;;;;;;4914317;29;20103;-66
2023/12/06 01:19:32;;;;;;;0.45;0.30;;;3.80;99.90;;;;;;4914337;29;20043;-66
2023/12/06 01:21:57;;;;;;;0.65;0.20;;;3.80;99.90;;;;;;4913783;29;20024;-64
2023/12/06 01:24:23;;;;;;;1.48;0.30;;;3.80;99.90;;;;;;4914981;29;20095;-65
2023/12/06 01:26:49;;;;;;;0.20;0.10;;;3.80;99.90;;;;;;4913300;29;20028;-65
2023/12/06 01:29:14;;;;;;;0.95;0.20;;;3.80;99.90;;;;;;4914913;29;20064;-64
2023/12/06 01:31:41;;;;;;;0.10;0.10;;;3.80;99.90;;;;;;4913441;29;20024;-64
2023/12/06 01:34:07;;;;;;;0.20;0.20;;;3.80;99.90;;;;;;4915002;29;20036;-64
2023/12/06 01:36:33;;;;;;;0.77;0.10;;;3.70;99.90;;;;;;4914455;29;20032;-64
2023/12/06 01:38:59;;;;;;;0.20;0.10;;;3.70;99.90;;;;;;4877116;29;1089587;-64
2023/12/06 01:41:24;;;;;;;0.38;0.10;;;3.70;99.90;;;;;;4914981;29;20467;-65
2023/12/06 01:43:50;;;;;;;0.20;0.10;;;3.60;99.90;;;;;;4914527;29;20024;-65
2023/12/06 01:46:15;;;;;;;0.35;0.10;;;3.50;99.90;;;;;;4915182;29;20555;-65
2023/12/06 01:48:43;;;;;;;0.32;0.17;;;3.50;99.90;;;;;;4914294;29;20028;-65
2023/12/06 01:51:11;;;;;;;0.28;0.20;;;3.50;99.90;;;;;;4914925;29;20032;-65
2023/12/06 01:53:37;;;;;;;0.10;0.10;;;3.50;99.90;;;;;;4897096;29;20032;-64
2023/12/06 01:56:04;;;;;;;1.77;0.30;;;3.50;99.90;;;;;;4914178;29;20079;-65
2023/12/06 01:58:30;;;;;;;0.30;0.20;;;3.60;99.90;;;;;;4915300;29;20029;-65
2023/12/06 02:00:56;;;;;;;0.20;0.10;;;3.50;99.90;;;;;;4913928;29;20037;-65
2023/12/06 02:03:22;;;;;;;0.10;0.10;;;3.60;99.90;;;;;;4915175;29;20024;-65
2023/12/06 02:05:49;;;;;;;0.98;0.10;;;3.60;99.90;;;;;;4913859;29;20466;-65
2023/12/06 02:08:16;;;;;;;0.45;0.25;;;3.60;99.90;;;;;;4914788;29;20537;-64
2023/12/06 02:10:41;;;;;;;1.65;0.13;;;3.70;99.90;;;;;;4913677;29;20382;-65
2023/12/06 02:13:08;;;;;;;0.55;0.20;;;3.60;99.90;;;;;;4915186;29;20028;-65
2023/12/06 02:15:33;;;;;;;1.17;0.20;;;3.60;99.90;;;;;;4914344;29;20043;-65
2023/12/06 02:18:00;;;;;;;0.60;0.20;;;3.60;99.90;;;;;;4913886;29;20036;-65
2023/12/06 02:20:25;;;;;;;0.77;0.30;;;3.60;99.90;;;;;;4914711;29;20024;-64
2023/12/06 02:22:52;;;;;;;0.22;0.20;;;3.70;99.90;;;;;;4913587;29;20043;-65
2023/12/06 02:25:18;;;;;;;0.22;0.10;;;3.70;99.90;;;;;;4914247;29;20030;-65
2023/12/06 02:27:45;;;;;;;0.20;0.20;;;3.70;99.90;;;;;;4913619;29;20417;-65
2023/12/06 02:30:11;;;;;;;0.50;0.20;;;3.70;99.90;;;;;;4914599;29;20398;-65
2023/12/06 02:32:37;;;;;;;1.13;0.10;;;3.80;99.90;;;;;;4914251;29;20024;-65
2023/12/06 02:35:11;;;;;;;0.20;0.10;;;3.80;99.90;;;;;;4913819;29;20028;-65
2023/12/06 02:37:39;;;;;;;0.10;0.10;;;3.80;99.90;;;;;;4914174;29;20055;-64
2023/12/06 02:40:09;;;;;;;0.75;0.38;;;3.80;99.90;;;;;;4913939;29;20108;-65
2023/12/06 02:42:35;;;;;;;;;;;3.90;99.90;;;;;;4914759;29;20111;-64
2023/12/06 02:45:01;;;;;;;0.10;0.10;;;3.90;99.90;;;;;;4913018;29;20001;-65
2023/12/06 02:47:27;;;;;;;0.13;0.10;;;3.90;99.90;;;;;;4914101;29;20055;-65
2023/12/06 02:49:52;;;;;;;0.52;0.13;;;3.90;99.90;;;;;;4913624;29;20508;-65
2023/12/06 02:52:18;;;;;;;0.00;0.00;;;4.00;99.90;;;;;;4913479;29;20064;-65
2023/12/06 02:54:43;;;;;;;0.20;0.00;;;4.00;99.90;;;;;;4913323;29;20032;-65
2023/12/06 02:57:09;;;;;;;0.75;0.20;;;4.00;99.90;;;;;;4913667;29;20067;-65
2023/12/06 02:59:34;;;;;;;0.22;0.08;;;4.10;99.90;;;;;;4914149;29;20493;-65
2023/12/06 03:02:00;;;;;;;0.10;0.00;;;4.00;99.90;;;;;;4913320;29;20067;-65
2023/12/06 03:04:26;;;;;;;0.10;0.10;;;4.10;99.90;;;;;;4896692;29;20039;-65
2023/12/06 03:06:51;;;;;;;0.20;0.13;;;4.10;99.90;;;;;;4912489;29;20035;-65
2023/12/06 03:09:17;;;;;;;0.10;0.10;;;4.10;99.90;;;;;;4914321;29;20043;-66
2023/12/06 03:11:42;;;;;;;1.48;0.13;;;4.20;99.90;;;;;;4912630;29;20087;-65
2023/12/06 03:14:08;;;;;;;0.10;0.10;;;4.20;99.90;;;;;;4914171;29;20037;-65
2023/12/06 03:16:33;;;;;;;0.95;0.20;;;4.20;99.90;;;;;;4913795;29;20413;-65
2023/12/06 03:19:01;;;;;;;0.22;0.15;;;4.20;99.90;;;;;;4914192;29;20036;-66
2023/12/06 03:21:26;;;;;;;0.10;0.10;;;4.20;99.90;;;;;;4915630;29;20047;-65
2023/12/06 03:23:52;;;;;;;0.30;0.20;;;4.20;99.90;;;;;;4916102;29;20032;-65
2023/12/06 03:26:17;;;;;;;0.20;0.20;;;4.20;99.90;;;;;;4914791;29;20080;-65
2023/12/06 03:28:43;;;;;;;0.10;0.10;;;4.20;99.90;;;;;;4913912;29;20059;-65
2023/12/06 03:31:08;;;;;;;0.20;0.20;;;4.10;99.90;;;;;;4913612;29;20040;-65
2023/12/06 03:33:34;;;;;;;0.20;0.17;;;4.10;99.90;;;;;;4914543;29;20049;-65
2023/12/06 03:35:59;;;;;;;1.75;0.10;;;4.20;99.90;;;;;;4913216;29;20138;-66
2023/12/06 03:38:25;;;;;;;0.22;0.13;;;4.10;99.90;;;;;;4913546;29;20151;-67
2023/12/06 03:40:51;;;;;;;0.20;0.10;;;4.10;99.90;;;;;;4912963;29;20032;-65
2023/12/06 03:43:17;;;;;;;0.60;0.30;;;4.10;99.90;;;;;;4914010;29;20115;-65
2023/12/06 03:45:43;;;;;;;0.40;0.10;;;4.00;99.90;;;;;;4912695;29;20115;-65
2023/12/06 03:48:08;;;;;;;0.10;0.10;;;4.00;99.90;;;;;;4912308;29;20115;-63
2023/12/06 03:50:34;;;;;;;0.20;0.17;;;3.90;99.90;;;;;;4914053;29;20043;-64
2023/12/06 03:53:00;;;;;;;0.00;0.00;;;4.00;99.90;;;;;;4912436;29;20028;-64
2023/12/06 03:55:25;;;;;;;0.10;0.10;;;4.00;99.90;;;;;;4913876;29;20446;-64
2023/12/06 03:57:51;;;;;;;0.75;0.10;;;4.00;99.90;;;;;;4912465;29;20024;-65
2023/12/06 04:00:16;;;;;;;0.30;0.10;;;3.90;99.90;;;;;;4914109;29;20456;-64
2023/12/06 04:02:42;;;;;;;0.25;0.15;;;3.90;99.90;;;;;;4911554;29;20080;-64
2023/12/06 04:05:08;;;;;;;0.22;0.10;;;3.90;99.90;;;;;;4913234;29;20028;-65
2023/12/06 04:07:34;;;;;;;0.10;0.10;;;3.90;99.90;;;;;;4912642;29;20036;-65
2023/12/06 04:10:00;;;;;;;0.20;0.10;;;3.90;99.90;;;;;;4912698;29;20059;-65
2023/12/06 04:12:26;;;;;;;0.20;0.10;;;3.90;99.90;;;;;;4912576;29;20039;-64
2023/12/06 04:14:53;;;;;;;0.30;0.10;;;3.90;99.90;;;;;;4912341;29;20032;-65
2023/12/06 04:17:19;;;;;;;0.10;0.08;;;3.90;99.90;;;;;;4914902;29;20108;-64
2023/12/06 04:19:45;;;;;;;0.55;0.20;;;3.90;99.90;;;;;;4898613;29;20119;-65
2023/12/06 04:22:10;;;;;;;0.10;0.08;;;3.90;99.90;;;;;;4915716;29;20043;-64
2023/12/06 04:24:39;;;;;;;0.50;0.15;;;3.90;99.90;;;;;;4916631;29;20028;-64
2023/12/06 04:27:04;;;;;;;0.20;0.20;;;3.90;99.90;;;;;;4915465;29;20028;-64
2023/12/06 04:29:31;;;;;;;0.10;0.10;;;3.90;99.90;;;;;;4916506;29;20028;-64
2023/12/06 04:31:57;;;;;;;0.88;0.03;;;3.90;99.90;;;;;;4915416;29;20036;-64
2023/12/06 04:34:22;;;;;;;0.30;0.10;;;4.00;99.90;;;;;;4917048;29;20104;-64
2023/12/06 04:36:48;;;;;;;0.90;0.20;;;4.00;99.90;;;;;;4915215;29;20072;-64
2023/12/06 04:39:13;;;;;;;0.10;0.10;;;4.00;99.90;;;;;;4916605;29;20048;-65
2023/12/06 04:41:39;;;;;;;0.47;0.10;;;4.00;99.90;;;;;;4915979;29;20087;-64
2023/12/06 04:44:05;;;;;;;0.25;0.22;;;4.00;99.90;;;;;;4915938;29;20099;-65
2023/12/06 04:46:30;;;;;;;0.20;0.10;;;4.00;99.90;;;;;;4915347;29;20085;-64
2023/12/06 04:48:56;;;;;;;0.10;0.10;;;4.10;99.90;;;;;;4915594;29;20036;-65
2023/12/06 04:51:22;;;;;;;0.22;0.10;;;4.10;99.90;;;;;;4916551;29;20032;-65
2023/12/06 04:53:47;;;;;;;0.10;0.10;;;4.00;99.90;;;;;;4915692;29;20024;-65
2023/12/06 04:56:14;;;;;;;0.10;0.10;;;4.00;99.90;;;;;;4915470;29;20036;-65
2023/12/06 04:58:40;;;;;;;0.10;0.10;;;4.10;99.90;;;;;;4915588;29;20071;-65
2023/12/06 05:01:05;;;;;;;0.32;0.00;;;4.10;99.90;;;;;;4915829;29;20407;-64
2023/12/06 05:03:31;;;;;;;0.85;0.10;;;4.10;99.90;;;;;;4916120;29;20032;-65
2023/12/06 05:05:57;;;;;;;0.10;0.10;;;4.10;99.90;;;;;;4915213;29;20039;-65
2023/12/06 05:08:22;;;;;;;0.30;0.10;;;4.10;99.90;;;;;;4899394;29;20036;-65
2023/12/06 05:10:48;;;;;;;0.10;0.00;;;4.00;99.90;;;;;;4915112;29;20415;-65
2023/12/06 05:13:14;;;;;;;0.30;0.10;;;4.10;99.90;;;;;;4915425;29;20406;-64
2023/12/06 05:15:40;;;;;;;1.50;0.10;;;4.00;99.90;;;;;;4915344;29;20377;-64
2023/12/06 05:18:07;;;;;;;0.30;0.20;;;4.00;99.90;;;;;;4914744;29;20489;-64
2023/12/06 05:20:33;;;;;;;0.20;0.00;;;4.00;99.90;;;;;;4915999;29;20032;-65
2023/12/06 05:22:58;;;;;;;0.05;0.03;;;4.00;99.90;;;;;;4897543;29;20115;-65
2023/12/06 05:25:24;;;;;;;0.65;0.10;;;4.10;99.90;;;;;;4915848;29;20032;-65
2023/12/06 05:27:49;;;;;;;0.10;0.03;;;4.00;99.90;;;;;;4913581;29;20091;-64
2023/12/06 05:30:15;;;;;;;0.43;0.10;;;4.00;99.90;;;;;;4915454;29;20032;-64
2023/12/06 05:32:41;;;;;;;0.43;0.25;;;4.00;99.90;;;;;;4914504;29;20020;-65
2023/12/06 05:35:07;;;;;;;0.40;0.10;;;4.00;99.90;;;;;;4916060;29;20024;-65
2023/12/06 05:37:32;;;;;;;1.38;0.20;;;4.00;99.90;;;;;;4916011;29;20052;-65
2023/12/06 05:39:58;;;;;;;0.35;0.15;;;4.00;99.90;;;;;;4917141;29;20702;-65
2023/12/06 05:42:24;;;;;;;1.02;0.30;;;4.10;99.90;;;;;;4917141;29;20036;-65
2023/12/06 05:44:49;;;;;;;0.20;0.20;;;4.10;99.90;;;;;;4916630;29;20052;-64
2023/12/06 05:47:15;;;;;;;0.10;0.10;;;4.10;99.90;;;;;;4916670;29;20029;-65
2023/12/06 05:49:41;;;;;;;0.10;0.10;;;4.00;99.90;;;;;;4916586;29;20047;-65
2023/12/06 05:52:07;;;;;;;0.52;0.10;;;4.00;99.90;;;;;;4917122;29;20028;-64
2023/12/06 05:54:32;;;;;;;1.05;0.20;;;3.90;99.90;;;;;;4918279;29;20031;-64
2023/12/06 05:56:58;;;;;;;0.47;0.20;;;3.90;99.90;;;;;;4916427;29;20034;-65
2023/12/06 05:59:24;;;;;;;0.43;0.40;;;4.00;99.90;;;;;;4917570;29;20212;-64
2023/12/06 06:01:49;;;;;;;0.32;0.10;;;3.90;99.90;;;;;;4917024;29;20020;-64
2023/12/06 06:04:15;;;;;;;0.43;0.22;;;3.90;99.90;;;;;;4917245;29;20028;-65
2023/12/06 06:06:41;;;;;;;0.17;0.17;;;4.00;99.90;;;;;;4914213;29;20028;-65
2023/12/06 06:09:07;;;;;;;0.68;0.30;;;4.00;99.90;;;;;;4915104;29;20094;-65
2023/12/06 06:11:32;;;;;;;1.10;0.63;;;4.00;99.90;;;;;;4915040;29;20032;-66
2023/12/06 06:13:58;;;;;;;1.92;0.90;;;3.90;99.90;;;;;;4914369;29;20028;-65
2023/12/06 06:16:24;;;;;;;1.10;0.50;;;3.90;99.90;;;;;;4914872;29;20629;-65
2023/12/06 06:18:49;;;;;;;2.03;0.40;;;3.90;99.90;;;;;;4914104;29;20474;-64
2023/12/06 06:21:15;;;;;;;0.52;0.40;;;3.90;99.90;;;;;;4914505;29;20037;-64
2023/12/06 06:23:41;;;;;;;0.40;0.35;;;3.90;99.90;;;;;;4914352;29;20122;-64
2023/12/06 06:26:09;;;;;;;1.98;0.45;;;3.90;99.90;;;;;;4914148;29;20024;-66
2023/12/06 06:28:34;;;;;;;1.15;0.60;;;3.80;99.90;;;;;;4914538;29;20417;-66
2023/12/06 06:31:00;;;;;;;0.32;0.30;;;3.80;99.90;;;;;;4913200;29;20027;-71
2023/12/06 06:33:26;;;;;;;1.10;0.50;;;3.80;99.90;;;;;;4914410;29;20032;-64
2023/12/06 06:35:51;;;;;;;0.40;0.30;;;3.80;99.90;;;;;;4913539;29;20513;-64
2023/12/06 06:38:17;;;;;;;0.75;0.40;;;3.80;99.90;;;;;;4913783;29;20051;-64
2023/12/06 06:40:42;;;;;;;1.00;0.30;;;3.80;99.90;;;;;;4913084;29;20064;-66
2023/12/06 06:43:08;;;;;;;2.05;0.40;;;3.90;99.90;;;;;;4914054;29;20036;-75
2023/12/06 06:45:33;;;;;;;0.43;0.25;;;3.90;99.90;;;;;;4914489;29;20470;-84
2023/12/06 06:47:59;;;;;;;0.40;0.30;;;3.90;99.90;;;;;;4895978;29;20045;-65
2023/12/06 06:50:25;;;;;;;0.32;0.30;;;3.80;99.90;;;;;;4914486;29;20040;-65
2023/12/06 06:52:51;;;;;;;0.38;0.32;;;3.90;99.90;;;;;;4897536;29;20031;-68
2023/12/06 06:55:16;;;;;;;0.55;0.38;;;3.90;99.90;;;;;;4913713;29;20036;-66
2023/12/06 06:57:42;;;;;;;0.85;0.57;;;4.00;99.90;;;;;;4913295;29;20080;-67
2023/12/06 07:00:10;;;;;;;0.75;0.60;;;4.00;99.90;;;;;;4913002;29;20525;-67
2023/12/06 07:02:35;;;;;;;1.48;0.50;;;4.00;99.90;;;;;;4914177;29;20025;-67
2023/12/06 07:05:02;;;;;;;0.32;0.30;;;4.10;99.90;;;;;;4913364;29;20470;-66
2023/12/06 07:07:27;;;;;;;0.70;0.40;;;4.10;99.90;;;;;;4913436;29;20512;-66
2023/12/06 07:09:53;;;;;;;2.00;0.70;;;4.20;99.90;;;;;;4913220;29;20036;-68
2023/12/06 07:12:20;;;;;;;0.88;0.40;;;4.30;99.90;;;;;;4913770;29;20028;-67
2023/12/06 07:14:46;;;;;;;0.45;0.40;;;4.20;99.90;;;;;;4912732;29;20039;-66
2023/12/06 07:17:11;;;;;;;1.88;0.50;;;4.30;99.90;;;;;;4913543;29;20393;-67
2023/12/06 07:19:37;;;;;;;1.08;0.73;;;4.30;99.90;;;;;;4910827;29;20048;-65
2023/12/06 07:22:03;;;;;;;0.50;0.50;;;4.30;99.90;;;;;;4912352;29;20033;-67
2023/12/06 07:24:28;;;;;;;2.65;0.98;;;4.30;99.90;;;;;;4907565;29;20557;-67
2023/12/06 07:26:54;;;;;;;0.88;0.45;;;4.30;99.90;;;;;;4913200;29;20059;-67
2023/12/06 07:29:19;;;;;;;1.45;0.50;;;4.30;99.90;;;;;;4913901;29;20386;-67
2023/12/06 07:31:45;;;;;;;1.45;0.60;;;4.30;99.90;;;;;;4912444;29;20045;-67
2023/12/06 07:34:10;;;;;;;0.38;0.30;;;4.30;99.90;;;;;;4913611;29;20142;-66
2023/12/06 07:36:36;;;;;;;0.50;0.30;;;4.30;99.90;;;;;;4913934;29;20111;-67
2023/12/06 07:39:02;;;;;;;0.73;0.30;;;4.40;99.90;;;;;;4912457;29;20506;-68
2023/12/06 07:41:28;;;;;;;0.70;0.45;;;4.40;99.90;;;;;;4896334;29;20032;-65
2023/12/06 07:43:53;;;;;;;0.60;0.30;;;4.40;99.90;;;;;;4908646;29;20051;-67
2023/12/06 07:46:19;;;;;;;0.73;0.50;;;4.50;99.90;;;;;;4912467;29;20107;-66
2023/12/06 07:48:44;;;;;;;1.20;0.30;;;4.50;99.90;;;;;;4912543;29;20035;-66
2023/12/06 07:51:10;;;;;;;0.57;0.57;;;4.50;99.90;;;;;;4914008;29;20147;-67
2023/12/06 07:53:35;;;;;;;0.50;0.50;;;4.40;99.90;;;;;;4917122;29;20032;-66
2023/12/06 07:56:01;;;;;;;0.88;0.50;;;4.40;99.90;;;;;;4916077;29;20865;-66
2023/12/06 07:58:30;;;;;;;1.42;0.60;;;4.40;99.90;;;;;;4926539;29;20035;-67
2023/12/06 08:00:57;;;;;;;2.25;0.80;;;4.40;99.90;;;;;;4917282;29;20024;-68
2023/12/06 08:03:26;;;;;;;0.95;0.68;;;4.40;99.90;;;;;;4916672;29;20036;-70
2023/12/06 08:05:52;;;;;;;0.98;0.40;;;4.40;99.90;;;;;;4916027;29;20032;-67
2023/12/06 08:08:18;;;;;;;1.05;0.70;;;4.40;99.90;;;;;;4917359;29;20059;-66
2023/12/06 08:10:43;;;;;;;0.70;0.40;;;4.40;99.90;;;;;;4915366;29;20095;-66
2023/12/06 08:13:09;;;;;;;1.10;0.63;;;4.40;99.90;;;;;;4916893;29;20035;-66
2023/12/06 08:15:35;;;;;;;2.28;0.73;;;4.40;99.90;;;;;;4917072;29;20047;-67
2023/12/06 08:18:01;;;;;;;0.90;0.60;;;4.50;99.90;;;;;;4915388;29;20032;-66
2023/12/06 08:20:26;;;;;;;1.40;0.50;;;4.50;99.90;;;;;;4916352;29;20028;-67
2023/12/06 08:22:52;;;;;;;1.17;0.85;;;4.40;99.90;;;;;;4915007;29;20032;-66
2023/12/06 08:25:17;;;;;;;1.88;0.85;;;4.50;99.90;;;;;;4916947;29;20386;-66
2023/12/06 08:27:44;;;;;;;1.63;1.10;;;4.40;99.90;;;;;;4915574;29;20103;-66
2023/12/06 08:30:10;;;;;;;2.95;1.35;;;4.40;99.90;;;;;;4916700;29;20051;-66
2023/12/06 08:32:35;;;;;;;1.92;1.70;;;4.60;99.90;;;;;;4915589;29;20036;-66
2023/12/06 08:35:01;;;;;;;2.17;1.55;;;4.60;99.90;;;;;;4915343;29;20083;-66
2023/12/06 08:37:27;;;;;;;4.68;2.10;;;4.70;99.90;;;;;;4915054;29;20052;-65
2023/12/06 08:39:52;;;;;;;3.58;1.90;;;4.70;99.90;;;;;;4898161;29;20175;-66
2023/12/06 08:42:18;;;;;;;4.18;2.67;;;4.60;99.90;;;;;;4915368;29;20043;-65
2023/12/06 08:44:44;;;;;;;3.08;2.40;;;4.70;99.90;;;;;;4915087;29;20159;-66
2023/12/06 08:47:10;;;;;;;5.43;3.33;;;4.70;99.90;;;;;;4898825;29;20038;-67
2023/12/06 08:49:37;;;;;;;4.72;3.88;;;4.70;99.90;;;;;;4915818;29;20028;-66
2023/12/06 08:52:03;;;;;;;7.13;4.30;;;4.80;99.90;;;;;;4914927;29;20020;-66
2023/12/06 08:54:29;;;;;;;6.18;4.30;;;4.80;99.90;;;;;;4898595;29;20211;-67
2023/12/06 08:56:55;;;;;;;6.10;4.47;;;4.70;99.90;;;;;;4914324;29;20184;-67
2023/12/06 08:59:20;;;;;;;7.65;4.88;;;4.70;99.90;;;;;;4916318;29;20036;-67
2023/12/06 09:01:46;;;;;;;4.60;4.10;;;4.70;99.90;;;;;;4914982;29;20031;-67
2023/12/06 09:04:11;;;;;;;7.32;5.47;;;4.60;99.90;;;;;;4915947;29;20048;-66
2023/12/06 09:06:37;;;;;;;6.72;6.00;;;4.60;99.90;;;;;;4914938;29;20040;-66
2023/12/06 09:09:05;;;;;;;9.48;5.97;;;4.60;99.90;;;;;;4914054;29;20071;-66
2023/12/06 09:11:31;;;;;;;6.88;6.18;;;4.60;99.90;;;;;;4915101;29;20024;-66
2023/12/06 09:13:56;;;;;;;7.95;6.30;;;4.50;99.90;;;;;;4915373;29;20983;-66
2023/12/06 09:16:22;;;;;;;10.18;6.85;;;4.40;99.90;;;;;;4920296;29;20050;-66
2023/12/06 09:18:48;;;;;;;10.35;7.13;;;4.50;99.90;;;;;;4910121;29;20040;-66
2023/12/06 09:21:13;;;;;;;7.47;6.28;;;4.50;99.90;;;;;;4922987;29;20481;-66
2023/12/06 09:23:40;;;;;;;9.73;6.60;;;4.40;99.90;;;;;;4915295;29;20032;-67
2023/12/06 09:26:05;;;;;;;11.48;7.75;;;4.40;99.90;;;;;;4914489;29;20119;-66
2023/12/06 09:28:31;;;;;;;10.05;7.35;;;4.40;99.90;;;;;;4915149;29;20107;-67
2023/12/06 09:30:57;;;;;;;8.55;7.47;;;4.30;99.90;;;;;;4914282;29;20032;-67
2023/12/06 09:33:22;;;;;;;9.27;7.68;;;4.30;99.90;;;;;;4915544;29;20474;-67
2023/12/06 09:35:48;;;;;;;10.50;8.00;;;4.30;99.90;;;;;;4914260;29;20095;-67
2023/12/06 09:38:13;;;;;;;11.13;8.10;;;4.30;99.90;;;;;;4914758;29;20052;-66
2023/12/06 09:40:39;;;;;;;10.80;8.02;;;4.20;99.90;;;;;;4914959;29;20076;-66
2023/12/06 09:43:05;;;;;;;10.95;7.20;;;4.30;99.90;;;;;;4897670;29;20462;-66
2023/12/06 09:45:30;;;;;;;11.20;7.13;;;4.40;99.90;;;;;;4915147;29;20530;-66
2023/12/06 09:47:56;;;;;;;7.82;6.53;;;4.30;99.90;;;;;;4913631;29;20547;-66
2023/12/06 09:50:25;;;;;;;10.70;8.00;;;4.30;99.90;;;;;;4915163;29;20040;-66
2023/12/06 09:52:55;;;;;;;10.93;8.07;;;4.40;99.90;;;;;;4913867;29;20415;-66
2023/12/06 09:55:24;;;;;;;11.98;8.45;;;4.30;99.90;;;;;;4915103;29;20398;-66
2023/12/06 09:57:57;;;;;;;11.20;8.02;;;4.30;99.90;;;;;;4913625;29;20056;-66
2023/12/06 10:00:23;;;;;;;37.20;11.25;;;4.30;99.90;;;;;;4914416;29;20040;-66
2023/12/06 10:02:57;;;;;;;12.50;7.88;;;4.30;99.90;;;;;;4913029;29;20059;-66
2023/12/06 10:05:23;;;;;;;11.05;8.18;;;4.30;99.90;;;;;;4914998;29;20032;-66
2023/12/06 10:07:49;;;;;;;10.00;7.97;;;4.30;99.90;;;;;;4913367;29;20123;-67
2023/12/06 10:10:19;;;;;;;9.63;8.10;;;4.30;99.90;;;;;;4914722;29;20043;-66
2023/12/06 10:12:45;;;;;;;;;;;4.30;99.90;;;;;;4914106;29;20028;-66
2023/12/06 10:15:11;;;;;;;8.77;6.78;;;4.30;99.90;;;;;;4919756;29;20329;-66
2023/12/06 10:17:37;;;;;;;8.73;7.82;;;4.30;99.90;;;;;;4914172;29;20035;-66
2023/12/06 10:20:04;;;;;;;10.75;7.78;;;4.30;99.90;;;;;;4913413;29;20087;-67
2023/12/06 10:22:29;;;;;;;11.13;7.45;;;4.30;99.90;;;;;;4913889;29;20055;-67
2023/12/06 10:24:56;;;;;;;10.98;7.38;;;4.30;99.90;;;;;;4910316;29;20393;-66
2023/12/06 10:27:23;;;;;;;9.93;7.13;;;4.30;99.90;;;;;;4914115;29;20021;-66
2023/12/06 10:29:52;;;;;;;15.88;7.47;;;4.30;99.90;;;;;;4904850;29;20055;-66
2023/12/06 10:32:18;;;;;;;9.52;7.10;;;4.30;99.90;;;;;;4911856;29;20099;-67
2023/12/06 10:34:45;;;;;;;10.57;7.82;;;4.40;99.90;;;;;;4913831;29;20107;-66
2023/12/06 10:37:12;;;;;;;10.95;7.57;;;4.40;99.90;;;;;;4912898;29;20067;-66
2023/12/06 10:39:40;;;;;;;10.80;7.95;;;4.40;99.90;;;;;;4914366;29;20044;-66
2023/12/06 10:42:17;;;;;;;10.18;7.93;;;4.40;99.90;;;;;;4913623;29;20088;-67
2023/12/06 10:44:43;;;;;;;8.90;7.00;;;4.40;99.90;;;;;;4912640;29;20024;-65
2023/12/06 10:47:10;;;;;;;8.90;7.18;;;4.40;99.90;;;;;;4914924;29;20466;-68
2023/12/06 10:49:37;;;;;;;8.88;7.15;;;4.40;99.90;;;;;;4919801;29;20038;-68
2023/12/06 10:52:04;;;;;;;12.00;6.70;;;4.40;99.90;;;;;;4914342;29;20030;-67
2023/12/06 10:54:30;;;;;;;8.88;6.95;;;4.50;99.90;;;;;;4916834;29;20036;-68
2023/12/06 10:56:56;;;;;;;9.65;7.10;;;4.50;99.90;;;;;;4916000;29;20099;-67
2023/12/06 10:59:32;;;;;;;13.45;7.38;;;4.50;99.90;;;;;;4915690;29;20127;-68
2023/12/06 11:01:59;;;;;;;9.52;6.65;;;4.60;99.90;;;;;;4913374;29;20090;-66
2023/12/06 11:04:28;;;;;;;8.68;6.50;;;4.60;99.90;;;;;;4914231;29;20043;-67
2023/12/06 11:07:00;;;;;;;8.20;6.28;;;4.60;99.90;;;;;;4912439;29;20028;-68
2023/12/06 11:09:49;;;;;;;9.50;6.78;;;4.60;99.90;;;;;;4914415;29;20389;-67
2023/12/06 11:12:38;;;;;;;7.72;5.95;;;4.60;99.90;;;;;;4913508;29;20035;-68
2023/12/06 11:15:40;;;;;;;9.07;6.30;;;4.70;99.90;;;;;;4913246;29;20103;-68
2023/12/06 11:18:18;;;;;;;9.38;6.70;;;4.70;99.90;;;;;;4913160;29;20051;-67
2023/12/06 11:20:44;;;;;;;8.48;6.15;;;4.70;99.90;;;;;;4912963;29;20079;-66
2023/12/06 11:23:10;;;;;;;9.55;6.43;;;4.70;99.90;;;;;;4913404;29;20040;-66
2023/12/06 11:25:44;;;;;;;6.88;5.88;;;4.70;99.90;;;;;;4923129;29;20401;-66
2023/12/06 11:28:13;;;;;;;8.27;5.90;;;4.70;99.90;;;;;;4915513;29;20047;-66
2023/12/06 11:30:57;;;;;;;10.77;6.50;;;4.80;99.90;;;;;;4917252;29;20032;-66
2023/12/06 11:33:23;;;;;;;6.93;5.60;;;4.80;99.90;;;;;;4917530;29;20119;-69
2023/12/06 11:35:54;;;;;;;7.32;5.88;;;4.80;99.90;;;;;;4916422;29;20184;-66
2023/12/06 11:38:37;;;;;;;8.82;5.90;;;4.70;99.90;;;;;;4916687;29;20044;-66
2023/12/06 11:41:04;;;;;;;7.45;5.97;;;4.70;99.90;;;;;;4916308;29;20048;-67
2023/12/06 11:43:37;;;;;;;8.50;6.10;;;4.70;99.90;;;;;;4916672;29;20039;-67
2023/12/06 11:46:09;;;;;;;8.30;6.30;;;4.60;99.90;;;;;;4916199;29;20074;-66
2023/12/06 11:48:41;;;;;;;9.45;6.13;;;4.60;99.90;;;;;;4917055;29;20482;-66
2023/12/06 11:51:07;;;;;;;11.70;5.90;;;4.60;99.90;;;;;;4915657;29;20115;-65
2023/12/06 11:53:36;;;;;;;9.25;6.60;;;4.50;99.90;;;;;;4913670;29;20164;-66
2023/12/06 11:56:02;;;;;;;10.35;6.90;;;4.60;99.90;;;;;;4916211;29;20556;-65
2023/12/06 11:58:31;;;;;;;8.27;6.03;;;4.50;99.90;;;;;;4916943;29;20373;-66
2023/12/06 12:00:59;;;;;;;7.38;5.93;;;4.50;99.90;;;;;;4915932;29;20039;-70
2023/12/06 12:03:26;;;;;;;8.00;6.15;;;4.40;99.90;;;;;;4899714;29;20441;-70
2023/12/06 12:05:52;;;;;;;8.85;6.05;;;4.50;99.90;;;;;;4915970;29;20028;-72
2023/12/06 12:08:19;;;;;;;8.63;6.50;;;4.40;99.90;;;;;;4916901;29;20032;-72
2023/12/06 12:10:46;;;;;;;7.85;6.22;;;4.40;99.90;;;;;;4915823;29;20159;-72
2023/12/06 12:13:23;;;;;;;7.72;6.20;;;4.40;99.90;;;;;;4917015;29;20043;-70
2023/12/06 12:15:57;;;;;;;10.70;6.65;;;4.40;99.90;;;;;;4915885;29;20083;-70
2023/12/06 12:18:27;;;;;;;8.65;6.55;;;4.40;99.90;;;;;;4916545;29;20068;-71
2023/12/06 12:20:53;;;;;;;9.63;7.53;;;4.40;99.90;;;;;;4915564;29;20036;-70
2023/12/06 12:23:18;;;;;;;7.60;6.13;;;4.30;99.90;;;;;;4916360;29;20600;-71
2023/12/06 12:25:48;;;;;;;7.80;5.97;;;4.40;99.90;;;;;;4913779;29;20051;-71
2023/12/06 12:28:18;;;;;;;8.32;6.38;;;4.30;99.90;;;;;;4916559;29;20031;-71
2023/12/06 12:30:46;;;;;;;8.07;6.63;;;4.30;99.90;;;;;;4915502;29;20206;-71
2023/12/06 12:33:14;;;;;;;10.35;6.72;;;4.30;99.90;;;;;;4899822;29;20067;-71
2023/12/06 12:35:40;;;;;;;9.50;6.30;;;4.40;99.90;;;;;;4915341;29;20028;-70
2023/12/06 12:38:07;;;;;;;9.85;6.57;;;4.40;99.90;;;;;;4915388;29;20088;-67
2023/12/06 12:40:33;;;;;;;8.50;6.25;;;4.40;99.90;;;;;;4916857;29;20474;-68
2023/12/06 12:42:59;;;;;;;9.88;5.68;;;4.50;99.90;;;;;;4915396;29;20035;-68
2023/12/06 12:45:26;;;;;;;8.63;6.30;;;4.50;99.90;;;;;;4915908;29;20048;-65
2023/12/06 12:47:53;;;;;;;8.02;6.38;;;4.50;99.90;;;;;;4915258;29;20070;-66
2023/12/06 12:50:20;;;;;;;10.88;6.63;;;4.50;99.90;;;;;;4916467;29;20044;-67
2023/12/06 12:52:47;;;;;;;9.50;6.82;;;4.60;99.90;;;;;;4914384;29;20036;-73